Terminal Aerodrome Forecast
Issued by NWS

Home | Current Version | Previous Version | Text Only | Print | Product List | Glossary On
Versions: 1 2 3 4 5 6 7 8 9 10 11 12 13 14 15 16 17 18 19 20 21 22 23 24 25 26 27 28 29 30 31
000
FTUS45 KSLC 030541
TAFENV
TAF
KENV 030541Z 0306/0406 26009KT P6SM SCT040 BKN090
     FM031400 32015G22KT P6SM VCSH BKN050
     FM031600 31016G24KT P6SM FEW070
     FM040100 35006KT P6SM FEW070
      AMD LTD TO CLD VIS AND WIND=

USA.gov is the U.S. government's official web portal to all federal, state and local government web resources and services.